Zprávy METAR z letišť v České republice

LKMT - Ostrava Mošnov, Česká republika
Vzdálenost od této stanice: V 12km
Aktualizováno: 12.12.2018 14:00
 
Teplota vzduchu: 2°C
Chlad větru: -1°C
Vítr: S 13 km/h
Rosný bod: -1°C
Vlhkost vzduchu: 81%
Tlak vzduchu: 1019 hPa
Oblačnost: skoro zataženo
Viditelnost: 6 km
Detaily oblačnosti: skoro zataženo 366 m
2018/12/12 13:00 LKMT 121300Z 35007KT 6000 BKN012 02/M01 Q1019 R04/290195 NOSIG
LKTB - Brno Tuřany, Česká republika
Vzdálenost od této stanice: JZ 110km
Aktualizováno: 12.12.2018 14:04
 
Teplota vzduchu: 2°C
Chlad větru: -1°C
Vítr: S 9 km/h
Rosný bod: 0°C
Vlhkost vzduchu: 87%
Tlak vzduchu: 1019 hPa
Stav počasí: slabý sníh
Oblačnost: skoro zataženo
Viditelnost: 10 km
Detaily oblačnosti: skoro jasno 244 m
skoro zataženo 518 m
2018/12/12 13:04 LKTB 121304Z 35005KT 320V030 9999 -SN FEW008 BKN017 02/M00 Q1019 R27/29//95 RMK REG QNH 1016
 
LKCV - Čáslav, Česká republika
Vzdálenost od této stanice: Z 186km
Aktualizováno: 12.12.2018 13:00
 
Teplota vzduchu: 0°C
Chlad větru: -3°C
Vítr: SV 7 km/h
Rosný bod: 0°C
Vlhkost vzduchu: 100%
Tlak vzduchu: 1020 hPa
Stav počasí: sníh
Oblačnost: zataženo
Viditelnost: 1 km
Detaily oblačnosti: skoro zataženo 274 m
zataženo 610 m
2018/12/12 12:00 LKCV 121200Z 04004KT 1300 R31/1400U SN BKN009 OVC020 00/00 Q1020 NOSIG RMK BLACK
LKNA - Náměšť n. Osl., Česká republika
Vzdálenost od této stanice: ZJZ 144km
Aktualizováno: 12.12.2018 13:00
 
Teplota vzduchu: 0°C
Chlad větru: -4°C
Vítr: SZ 15 km/h
Rosný bod: -1°C
Vlhkost vzduchu: 93%
Tlak vzduchu: 1018 hPa
Oblačnost: skoro zataženo
Viditelnost: 10 km
Detaily oblačnosti: skoro jasno 244 m
oblačno 762 m
skoro zataženo 1646 m
2018/12/12 12:00 LKNA 121200Z 31008KT 9999 FEW008 SCT025 BKN054 M00/M01 Q1018 RMK GRN GRN
 
LKPR - Praha Ruzyně, Česká republika
Vzdálenost od této stanice: ZSZ 268km
Aktualizováno: 12.12.2018 14:00
 
Teplota vzduchu: 2°C
Chlad větru: -2°C
Vítr: S 15 km/h
Rosný bod: -1°C
Vlhkost vzduchu: 81%
Tlak vzduchu: 1020 hPa
Stav počasí: Slabý sníh, Přeháňky
Oblačnost: skoro zataženo
Viditelnost: 10 km
Detaily oblačnosti: skoro jasno 305 m
skoro zataženo 396 m
skoro zataženo 671 m
2018/12/12 13:00 LKPR 121300Z 36008KT 9999 -SHSN FEW010 BKN013 BKN022 02/M01 Q1020 NOSIG
LKKV - Karlovy Vary, Česká republika
Vzdálenost od této stanice: ZSZ 365km
Aktualizováno: 12.12.2018 14:00
 
Teplota vzduchu: 0°C
Chlad větru: -3°C
Vítr: S 7 km/h
Rosný bod: -2°C
Vlhkost vzduchu: 87%
Tlak vzduchu: 1019 hPa
Oblačnost: oblačno
Viditelnost: 10 km
Detaily oblačnosti: oblačno 488 m
2018/12/12 13:00 LKKV 121300Z 36004KT 310V050 9999 SCT016 M00/M02 Q1019 R29/29//95
 
LKPD - Pardubice, Česká republika
Vzdálenost od této stanice: ZSZ 163km
Aktualizováno: 12.12.2018 14:00
 
Teplota vzduchu: 1°C
Vítr: ZSZ 6 km/h
Rosný bod: 0°C
Vlhkost vzduchu: 93%
Tlak vzduchu: 1020 hPa
Oblačnost: zataženo
Viditelnost: 8 km
Detaily oblačnosti: oblačno 152 m
skoro zataženo 1067 m
zataženo 1524 m
2018/12/12 13:00 LKPD 121300Z 30003KT 8000 SCT005 BKN035 OVC050 01/M00 Q1020 NOSIG RMK BLU BLU
LKKB - Praha Kbely, Česká republika
Vzdálenost od této stanice: Z 249km
Aktualizováno: 12.12.2018 13:00
 
Teplota vzduchu: 2°C
Chlad větru: -2°C
Vítr: SSZ 17 km/h
Rosný bod: 0°C
Vlhkost vzduchu: 87%
Tlak vzduchu: 1020 hPa
Oblačnost: zataženo
Viditelnost: 10 km
Detaily oblačnosti: skoro zataženo 305 m
zataženo 1463 m
2018/12/12 12:00 LKKB 121200Z 34009KT 9999 BKN010 OVC048 02/M00 Q1020 NOSIG
 
LKLN - Plzeň Líně, Česká republika
Vzdálenost od této stanice: Z 337km
Aktualizováno: 12.12.2018 13:00
 
Teplota vzduchu: 2°C
Vítr: proměnlivý 4 km/h
Rosný bod: -1°C
Vlhkost vzduchu: 81%
Tlak vzduchu: 1021 hPa
Oblačnost: zataženo
Viditelnost: 10 km
Detaily oblačnosti: zataženo 945 m
2018/12/12 12:00 LKLN 121200Z AUTO VRB02KT 9999 OVC031 02/M01 Q1021
LKVO - Vodochody, Česká republika
Vzdálenost od této stanice: ZSZ 261km
Aktualizováno: 12.12.2018 13:00
 
Teplota vzduchu: 3°C
Chlad větru: 0°C
Vítr: proměnlivý 9 km/h
Rosný bod: 0°C
Vlhkost vzduchu: 81%
Tlak vzduchu: 1021 hPa
Oblačnost: skoro zataženo
Viditelnost: 10 km
Detaily oblačnosti: skoro zataženo 335 m
2018/12/12 12:00 LKVO 121200Z VRB05KT 9999 BKN011 03/00 Q1021

Metar display script od Saratoga-Weather.org
upravil a přeložil Miloš Jiřík